Time;durP1;ratioP1;P1;durP2;ratioP2;P2;SDS_P1;SDS_P2;PMS_P1;PMS_P2;Temp;Humidity;BMP_temperature;BMP_pressure;BME280_temperature;BME280_humidity;BME280_pressure;Samples;Min_cycle;Max_cycle;Signal;HPM_P1;HPM_P2
2022/01/02 00:01:13;;;;;;;0.00;0.00;;;10.90;99.90;;;;;;5164023;27;20051;-78
2022/01/02 00:03:41;;;;;;;0.08;0.08;;;10.90;99.90;;;;;;5147068;28;20069;-83
2022/01/02 00:06:08;;;;;;;0.00;0.00;;;10.90;99.90;;;;;;5164430;28;20408;-84
2022/01/02 00:08:43;;;;;;;0.10;0.10;;;10.90;99.90;;;;;;5113712;28;20279;-78
2022/01/02 00:11:12;;;;;;;0.00;0.00;;;10.90;99.90;;;;;;5147157;28;20036;-78
2022/01/02 00:13:46;;;;;;;0.20;0.10;;;10.90;99.90;;;;;;5146588;28;20063;-78
2022/01/02 00:16:17;;;;;;;0.00;0.00;;;10.90;99.90;;;;;;5146811;28;20495;-78
2022/01/02 00:18:52;;;;;;;0.00;0.00;;;10.90;99.90;;;;;;5163971;28;20404;-78
2022/01/02 00:21:20;;;;;;;0.00;0.00;;;10.90;99.90;;;;;;5114110;28;20088;-83
2022/01/02 00:24:03;;;;;;;0.05;0.05;;;10.90;99.90;;;;;;5113707;28;20586;-78
2022/01/02 00:26:42;;;;;;;0.00;0.00;;;10.80;99.90;;;;;;5132119;28;20046;-83
2022/01/02 00:29:10;;;;;;;0.10;0.10;;;10.80;99.90;;;;;;5163589;28;20043;-78
2022/01/02 00:31:39;;;;;;;0.15;0.10;;;10.80;99.90;;;;;;5130153;28;20385;-78
2022/01/02 00:34:06;;;;;;;0.00;0.00;;;10.80;99.90;;;;;;5163765;28;20044;-83
2022/01/02 00:36:34;;;;;;;0.00;0.00;;;10.80;99.90;;;;;;5146963;28;20519;-83
2022/01/02 00:39:02;;;;;;;0.00;0.00;;;10.80;99.90;;;;;;5163443;28;20048;-83
2022/01/02 00:41:37;;;;;;;0.00;0.00;;;10.70;99.90;;;;;;5163738;28;20071;-78
2022/01/02 00:44:04;;;;;;;;;;;10.70;99.90;;;;;;5163924;28;20039;-83
2022/01/02 00:46:33;;;;;;;0.00;0.00;;;10.70;99.90;;;;;;5164270;28;19923;-83
2022/01/02 00:49:05;;;;;;;0.00;0.00;;;10.70;99.90;;;;;;5112914;28;20043;-82
2022/01/02 00:51:43;;;;;;;0.00;0.00;;;10.70;99.90;;;;;;5164213;28;20079;-78
2022/01/02 00:54:14;;;;;;;0.00;0.00;;;10.70;99.90;;;;;;5146714;28;20400;-83
2022/01/02 00:56:45;;;;;;;0.10;0.10;;;10.70;99.90;;;;;;5163871;28;20044;-84
2022/01/02 00:59:26;;;;;;;0.00;0.00;;;10.70;99.90;;;;;;5129769;28;20142;-78
2022/01/02 01:02:02;;;;;;;0.00;0.00;;;10.60;99.90;;;;;;5163878;28;20071;-78
2022/01/02 01:04:34;;;;;;;0.00;0.00;;;10.70;99.90;;;;;;5163552;28;20054;-78
2022/01/02 01:07:05;;;;;;;0.00;0.00;;;10.60;99.90;;;;;;5129973;28;20070;-78
2022/01/02 01:09:32;;;;;;;0.10;0.10;;;10.60;99.90;;;;;;5129306;28;20040;-83
2022/01/02 01:12:03;;;;;;;0.00;0.00;;;10.60;99.90;;;;;;5112686;28;20043;-78
2022/01/02 01:14:30;;;;;;;0.20;0.20;;;10.70;99.90;;;;;;5181068;27;20054;-77
2022/01/02 01:16:57;;;;;;;0.10;0.10;;;10.60;99.90;;;;;;5163852;28;20381;-78
2022/01/02 01:19:25;;;;;;;0.00;0.00;;;10.60;99.90;;;;;;5146208;28;20108;-78
2022/01/02 01:21:52;;;;;;;0.00;0.00;;;10.70;99.90;;;;;;5146727;28;20048;-83
2022/01/02 01:24:19;;;;;;;0.00;0.00;;;10.60;99.90;;;;;;5129364;28;20038;-78
2022/01/02 01:26:49;;;;;;;0.00;0.00;;;10.70;99.90;;;;;;5133401;28;20118;-83
2022/01/02 01:29:16;;;;;;;0.00;0.00;;;10.70;99.90;;;;;;5116478;28;20039;-78
2022/01/02 01:31:44;;;;;;;0.10;0.10;;;10.70;99.90;;;;;;5132990;28;20116;-78
2022/01/02 01:34:10;;;;;;;0.00;0.00;;;10.70;99.90;;;;;;5116166;28;20054;-84
2022/01/02 01:36:37;;;;;;;0.00;0.00;;;10.70;99.90;;;;;;5133013;28;20039;-84
2022/01/02 01:39:04;;;;;;;0.00;0.00;;;10.70;99.90;;;;;;5116187;28;20085;-78
2022/01/02 01:41:35;;;;;;;0.03;0.03;;;10.70;99.90;;;;;;5115818;28;20043;-78
2022/01/02 01:44:08;;;;;;;0.15;0.10;;;10.70;99.90;;;;;;5150065;28;20396;-78
2022/01/02 01:46:37;;;;;;;0.00;0.00;;;10.70;99.90;;;;;;5117294;28;20039;-83
2022/01/02 01:49:19;;;;;;;0.00;0.00;;;10.80;99.90;;;;;;5167196;27;20067;-84
2022/01/02 01:51:48;;;;;;;0.00;0.00;;;10.70;99.90;;;;;;5166976;27;20126;-78
2022/01/02 01:54:16;;;;;;;0.00;0.00;;;10.70;99.90;;;;;;5149458;28;20047;-78
2022/01/02 01:56:43;;;;;;;0.00;0.00;;;10.70;99.90;;;;;;5116268;28;20039;-78
2022/01/02 01:59:10;;;;;;;0.00;0.00;;;10.70;99.90;;;;;;5165994;27;20476;-78
2022/01/02 02:01:36;;;;;;;0.08;0.05;;;10.70;99.90;;;;;;5115681;28;20069;-83
2022/01/02 02:04:03;;;;;;;0.00;0.00;;;10.70;99.90;;;;;;5132671;28;20084;-77
2022/01/02 02:06:31;;;;;;;0.00;0.00;;;10.70;99.90;;;;;;5115274;28;20035;-77
2022/01/02 02:09:00;;;;;;;0.00;0.00;;;10.70;99.90;;;;;;5132202;28;20101;-77
2022/01/02 02:11:28;;;;;;;0.00;0.00;;;10.70;99.90;;;;;;5098915;28;20088;-83
2022/01/02 02:13:56;;;;;;;0.00;0.00;;;10.70;99.90;;;;;;5112452;28;20044;-78
2022/01/02 02:16:23;;;;;;;0.00;0.00;;;10.70;99.90;;;;;;5128356;28;20044;-84
2022/01/02 02:18:50;;;;;;;0.00;0.00;;;10.80;99.90;;;;;;5112156;28;20036;-79
2022/01/02 02:21:29;;;;;;;0.10;0.10;;;10.70;99.90;;;;;;5094519;28;20528;-83
2022/01/02 02:23:56;;;;;;;0.00;0.00;;;10.70;99.90;;;;;;5145752;28;20086;-78
2022/01/02 02:26:23;;;;;;;0.35;0.10;;;10.60;99.90;;;;;;5111397;28;20093;-84
2022/01/02 02:28:50;;;;;;;0.10;0.10;;;10.70;99.90;;;;;;5128771;28;20032;-84
2022/01/02 02:31:16;;;;;;;0.00;0.00;;;10.60;99.90;;;;;;5111524;28;20044;-84
2022/01/02 02:33:43;;;;;;;0.00;0.00;;;10.70;99.90;;;;;;5111333;28;20039;-78
2022/01/02 02:36:10;;;;;;;0.00;0.00;;;10.70;99.90;;;;;;5094849;28;20044;-77
2022/01/02 02:38:40;;;;;;;0.00;0.00;;;10.60;99.90;;;;;;5111109;28;20062;-83
2022/01/02 02:41:07;;;;;;;0.05;0.05;;;10.60;99.90;;;;;;5128545;28;20036;-83
2022/01/02 02:44:02;;;;;;;0.00;0.00;;;10.60;99.90;;;;;;5094193;28;20109;-78
2022/01/02 02:49:06;;;;;;;0.00;0.00;;;10.60;99.90;;;;;;5133386;27;20040;-82
2022/01/02 02:51:50;;;;;;;0.00;0.00;;;10.60;99.90;;;;;;5127769;28;20131;-83
2022/01/02 02:54:26;;;;;;;0.00;0.00;;;10.60;99.90;;;;;;5112397;28;20091;-83
2022/01/02 02:59:26;;;;;;;0.00;0.00;;;10.60;99.90;;;;;;5127271;28;20053;-78
2022/01/02 03:01:53;;;;;;;0.00;0.00;;;10.60;99.90;;;;;;5111609;28;20184;-78
2022/01/02 03:04:21;;;;;;;0.00;0.00;;;10.60;99.90;;;;;;5127188;28;20087;-78
2022/01/02 03:06:48;;;;;;;0.00;0.00;;;10.60;99.90;;;;;;5127754;28;20043;-84
2022/01/02 03:09:18;;;;;;;0.00;0.00;;;10.70;99.90;;;;;;5110913;28;20036;-83
2022/01/02 03:11:44;;;;;;;0.00;0.00;;;10.60;99.90;;;;;;5110844;28;20044;-78
2022/01/02 03:14:12;;;;;;;0.00;0.00;;;10.60;99.90;;;;;;5094249;28;20192;-77
2022/01/02 03:16:40;;;;;;;0.00;0.00;;;10.60;99.90;;;;;;5127036;28;20047;-83
2022/01/02 03:19:07;;;;;;;0.00;0.00;;;10.60;99.90;;;;;;5110355;28;20089;-83
2022/01/02 03:21:34;;;;;;;0.00;0.00;;;10.60;99.90;;;;;;5110296;28;20040;-83
2022/01/02 03:24:01;;;;;;;0.00;0.00;;;10.60;99.90;;;;;;5127622;28;20369;-79
2022/01/02 03:26:28;;;;;;;0.00;0.00;;;10.60;99.90;;;;;;5109856;28;20500;-83
2022/01/02 03:28:55;;;;;;;0.10;0.10;;;10.50;99.90;;;;;;5093763;28;20036;-83
2022/01/02 03:31:21;;;;;;;0.00;0.00;;;10.50;99.90;;;;;;5110495;28;20036;-83
2022/01/02 03:33:48;;;;;;;0.00;0.00;;;10.50;99.90;;;;;;5093710;28;20500;-78
2022/01/02 03:36:15;;;;;;;0.00;0.00;;;10.50;99.90;;;;;;5094138;28;20463;-78
2022/01/02 03:38:42;;;;;;;0.00;0.00;;;10.50;99.90;;;;;;5144029;28;20042;-78
2022/01/02 03:41:08;;;;;;;0.00;0.00;;;10.50;99.90;;;;;;5110387;28;20051;-83
2022/01/02 03:43:35;;;;;;;0.00;0.00;;;10.50;99.90;;;;;;5143907;28;20814;-78
2022/01/02 03:46:02;;;;;;;0.00;0.00;;;10.50;99.90;;;;;;5110240;28;20382;-78
2022/01/02 03:48:31;;;;;;;0.00;0.00;;;10.50;99.90;;;;;;5093110;28;20028;-77
2022/01/02 03:50:58;;;;;;;0.10;0.10;;;10.60;99.90;;;;;;5110303;28;20567;-78
2022/01/02 03:53:25;;;;;;;0.00;0.00;;;10.50;99.90;;;;;;5076651;28;20086;-78
2022/01/02 03:55:52;;;;;;;0.00;0.00;;;10.50;99.90;;;;;;5110157;28;20401;-84
2022/01/02 03:58:19;;;;;;;0.00;0.00;;;10.50;99.90;;;;;;5110498;28;20040;-83
2022/01/02 04:00:46;;;;;;;0.00;0.00;;;10.50;99.90;;;;;;5093143;28;20758;-83
2022/01/02 04:03:13;;;;;;;0.00;0.00;;;10.50;99.90;;;;;;5126992;28;20036;-83
2022/01/02 04:05:39;;;;;;;0.00;0.00;;;10.50;99.90;;;;;;5109843;28;20556;-84
2022/01/02 04:08:06;;;;;;;0.00;0.00;;;10.60;99.90;;;;;;5110379;28;20080;-83
2022/01/02 04:10:33;;;;;;;0.10;0.10;;;10.50;99.90;;;;;;5093065;28;20446;-83
2022/01/02 04:12:59;;;;;;;0.15;0.08;;;10.50;99.90;;;;;;5093263;28;20044;-78
2022/01/02 04:15:26;;;;;;;0.05;0.05;;;10.50;99.90;;;;;;5126455;28;20050;-79
2022/01/02 04:17:53;;;;;;;0.00;0.00;;;10.50;99.90;;;;;;5143228;28;20038;-78
2022/01/02 04:20:20;;;;;;;0.00;0.00;;;10.50;99.90;;;;;;5109952;28;20097;-78
2022/01/02 04:22:46;;;;;;;0.00;0.00;;;10.60;99.90;;;;;;5092828;28;20046;-78
2022/01/02 04:25:13;;;;;;;0.00;0.00;;;10.60;99.90;;;;;;5093200;28;20070;-84
2022/01/02 04:27:40;;;;;;;0.00;0.00;;;10.60;99.90;;;;;;5108980;28;20484;-81
2022/01/02 04:30:10;;;;;;;0.00;0.00;;;10.60;99.90;;;;;;5110147;28;20035;-78
2022/01/02 04:32:37;;;;;;;0.00;0.00;;;10.60;99.90;;;;;;5142981;28;20512;-78
2022/01/02 04:35:04;;;;;;;0.00;0.00;;;10.60;99.90;;;;;;5110229;28;20048;-78
2022/01/02 04:37:32;;;;;;;0.22;0.10;;;10.70;99.90;;;;;;5126128;28;20048;-78
2022/01/02 04:39:59;;;;;;;0.00;0.00;;;10.70;99.90;;;;;;5109942;28;20075;-78
2022/01/02 04:42:25;;;;;;;0.00;0.00;;;10.70;99.90;;;;;;5143370;28;20078;-84
2022/01/02 04:44:52;;;;;;;0.00;0.00;;;10.70;99.90;;;;;;5109537;28;20132;-78
2022/01/02 04:47:19;;;;;;;0.00;0.00;;;10.70;99.90;;;;;;5109598;28;20040;-84
2022/01/02 04:49:45;;;;;;;0.00;0.00;;;10.70;99.90;;;;;;5126529;28;20028;-78
2022/01/02 04:52:12;;;;;;;0.08;0.08;;;10.80;99.90;;;;;;5110316;28;20114;-84
2022/01/02 04:54:39;;;;;;;0.00;0.00;;;10.80;99.90;;;;;;5092780;28;20044;-84
2022/01/02 04:57:06;;;;;;;0.00;0.00;;;10.80;99.90;;;;;;5093302;28;20044;-78
2022/01/02 04:59:32;;;;;;;0.00;0.00;;;10.80;99.90;;;;;;5126457;28;20044;-78
2022/01/02 05:01:59;;;;;;;0.00;0.00;;;10.70;99.90;;;;;;5113555;28;20040;-85
2022/01/02 05:04:26;;;;;;;0.00;0.00;;;10.70;99.90;;;;;;5113216;28;20083;-84
2022/01/02 05:06:52;;;;;;;0.00;0.00;;;10.70;99.90;;;;;;5112993;28;20040;-84
2022/01/02 05:09:19;;;;;;;0.00;0.00;;;10.70;99.90;;;;;;5113533;28;20032;-78
2022/01/02 05:11:46;;;;;;;0.00;0.00;;;10.70;99.90;;;;;;5113125;28;20047;-84
2022/01/02 05:14:13;;;;;;;0.00;0.00;;;10.70;99.90;;;;;;5097011;28;20401;-78
2022/01/02 05:16:39;;;;;;;0.00;0.00;;;10.70;99.90;;;;;;5096681;28;20076;-84
2022/01/02 05:19:06;;;;;;;0.00;0.00;;;10.70;99.90;;;;;;5130258;28;20075;-78
2022/01/02 05:21:33;;;;;;;0.00;0.00;;;10.70;99.90;;;;;;5096666;28;20399;-84
2022/01/02 05:23:59;;;;;;;0.00;0.00;;;10.70;99.90;;;;;;5096674;28;20044;-84
2022/01/02 05:26:26;;;;;;;0.00;0.00;;;10.80;99.90;;;;;;5130665;28;20454;-84
2022/01/02 05:28:53;;;;;;;0.00;0.00;;;10.80;99.90;;;;;;5129329;28;20075;-78
2022/01/02 05:31:19;;;;;;;0.00;0.00;;;10.70;99.90;;;;;;5129074;28;20044;-78
2022/01/02 05:33:46;;;;;;;0.00;0.00;;;10.80;99.90;;;;;;5095467;28;20150;-78
2022/01/02 05:36:13;;;;;;;0.00;0.00;;;10.80;99.90;;;;;;5079094;28;20123;-78
2022/01/02 05:38:39;;;;;;;0.00;0.00;;;10.80;99.90;;;;;;5129590;28;20036;-78
2022/01/02 05:41:06;;;;;;;0.00;0.00;;;10.80;99.90;;;;;;5096221;28;20043;-78
2022/01/02 05:43:33;;;;;;;0.00;0.00;;;10.80;99.90;;;;;;5096044;28;20131;-78
2022/01/02 05:46:05;;;;;;;0.03;0.03;;;10.80;99.90;;;;;;5095528;28;20050;-87
2022/01/02 05:48:32;;;;;;;0.00;0.00;;;10.80;99.90;;;;;;5113368;28;20048;-78
2022/01/02 05:51:00;;;;;;;0.00;0.00;;;10.80;99.90;;;;;;5112496;28;20043;-84
2022/01/02 05:53:28;;;;;;;0.00;0.00;;;10.80;99.90;;;;;;5130237;28;20081;-85
2022/01/02 05:55:56;;;;;;;0.00;0.00;;;10.80;99.90;;;;;;5146413;28;20374;-85
2022/01/02 05:58:22;;;;;;;0.00;0.00;;;10.80;99.90;;;;;;5129223;28;20040;-85
2022/01/02 06:00:49;;;;;;;0.00;0.00;;;10.80;99.90;;;;;;5112511;28;20125;-84
2022/01/02 06:03:16;;;;;;;0.00;0.00;;;10.80;99.90;;;;;;5095584;28;20044;-79
2022/01/02 06:05:43;;;;;;;0.10;0.10;;;10.80;99.90;;;;;;5128648;28;20056;-79
2022/01/02 06:08:09;;;;;;;0.00;0.00;;;10.80;99.90;;;;;;5095674;28;20439;-85
2022/01/02 06:10:36;;;;;;;0.00;0.00;;;10.90;99.90;;;;;;5095623;28;20128;-85
2022/01/02 06:13:03;;;;;;;0.00;0.00;;;10.80;99.90;;;;;;5146242;28;20047;-79
2022/01/02 06:15:30;;;;;;;0.28;0.22;;;10.90;99.90;;;;;;5112240;28;20382;-78
2022/01/02 06:17:56;;;;;;;0.00;0.00;;;10.90;99.90;;;;;;5128125;28;20523;-85
2022/01/02 06:20:23;;;;;;;0.00;0.00;;;10.90;99.90;;;;;;5095466;28;20123;-79
2022/01/02 06:22:50;;;;;;;0.00;0.00;;;10.80;99.90;;;;;;5095149;28;20044;-85
2022/01/02 06:25:17;;;;;;;0.00;0.00;;;10.90;99.90;;;;;;5145246;28;20032;-78
2022/01/02 06:27:44;;;;;;;0.00;0.00;;;10.80;99.90;;;;;;5111772;28;20036;-84
2022/01/02 06:30:11;;;;;;;0.00;0.00;;;10.90;99.90;;;;;;5095495;28;20082;-84
2022/01/02 06:32:37;;;;;;;0.00;0.00;;;10.90;99.90;;;;;;5112387;28;20123;-85
2022/01/02 06:35:05;;;;;;;0.00;0.00;;;10.90;99.90;;;;;;5077984;28;20189;-79
2022/01/02 06:37:31;;;;;;;0.00;0.00;;;10.90;99.90;;;;;;5111745;28;20040;-79
2022/01/02 06:39:58;;;;;;;0.00;0.00;;;11.00;99.90;;;;;;5096417;28;20043;-79
2022/01/02 06:42:24;;;;;;;0.00;0.00;;;11.00;99.90;;;;;;5094692;28;20132;-78
2022/01/02 06:44:51;;;;;;;0.00;0.00;;;11.00;99.90;;;;;;5094729;28;20043;-78
2022/01/02 06:47:18;;;;;;;0.00;0.00;;;11.00;99.90;;;;;;5094851;28;20044;-79
2022/01/02 06:49:44;;;;;;;0.00;0.00;;;11.00;99.90;;;;;;5111360;28;20046;-85
2022/01/02 06:52:11;;;;;;;0.00;0.00;;;11.00;99.90;;;;;;5095085;28;20040;-79
2022/01/02 06:54:38;;;;;;;0.00;0.00;;;11.00;99.90;;;;;;5095250;28;20738;-79
2022/01/02 06:57:04;;;;;;;0.00;0.00;;;11.00;99.90;;;;;;5094321;28;20114;-78
2022/01/02 06:59:31;;;;;;;0.00;0.00;;;11.10;99.90;;;;;;5127903;28;20130;-78
2022/01/02 07:01:58;;;;;;;0.00;0.00;;;11.10;99.90;;;;;;5127740;28;20043;-85
2022/01/02 07:04:24;;;;;;;0.00;0.00;;;11.10;99.90;;;;;;5114127;28;20055;-78
2022/01/02 07:06:51;;;;;;;0.05;0.05;;;11.10;99.90;;;;;;5097061;28;20075;-79
2022/01/02 07:09:18;;;;;;;0.00;0.00;;;11.10;99.90;;;;;;5114470;28;20078;-84
2022/01/02 07:11:45;;;;;;;0.00;0.00;;;11.20;99.90;;;;;;5097642;28;20054;-84
2022/01/02 07:14:11;;;;;;;0.00;0.00;;;11.20;99.90;;;;;;5098059;28;20043;-78
2022/01/02 07:16:38;;;;;;;0.00;0.00;;;11.20;99.90;;;;;;5097827;28;20483;-83
2022/01/02 07:19:05;;;;;;;0.55;0.52;;;11.20;99.90;;;;;;5092918;28;20385;-85
2022/01/02 07:21:31;;;;;;;0.00;0.00;;;11.20;99.90;;;;;;5109968;28;20040;-78
2022/01/02 07:23:59;;;;;;;0.00;0.00;;;11.20;99.90;;;;;;5109716;28;20051;-78
2022/01/02 07:26:25;;;;;;;0.00;0.00;;;11.30;99.90;;;;;;5110713;28;20040;-84
2022/01/02 07:28:52;;;;;;;0.00;0.00;;;11.20;99.90;;;;;;5110036;28;20047;-84
2022/01/02 07:31:19;;;;;;;0.00;0.00;;;11.30;99.90;;;;;;5111181;28;20047;-78
2022/01/02 07:33:45;;;;;;;0.00;0.00;;;11.30;99.90;;;;;;5111063;28;20469;-78
2022/01/02 07:36:12;;;;;;;0.03;0.03;;;11.30;99.90;;;;;;5109954;28;20488;-78
2022/01/02 07:38:39;;;;;;;0.00;0.00;;;11.30;99.90;;;;;;5110428;28;20042;-78
2022/01/02 07:41:05;;;;;;;0.00;0.00;;;11.40;99.90;;;;;;5113846;28;20377;-78
2022/01/02 07:43:32;;;;;;;0.00;0.00;;;11.30;99.90;;;;;;5094036;28;20378;-85
2022/01/02 07:45:59;;;;;;;0.00;0.00;;;11.30;99.90;;;;;;5114023;28;20083;-84
2022/01/02 07:48:25;;;;;;;0.00;0.00;;;11.30;99.90;;;;;;5097628;28;20118;-85
2022/01/02 07:50:52;;;;;;;0.00;0.00;;;11.30;99.90;;;;;;5097136;28;20127;-85
2022/01/02 07:53:19;;;;;;;0.00;0.00;;;11.30;99.90;;;;;;5130554;28;20035;-84
2022/01/02 07:55:46;;;;;;;0.03;0.03;;;11.30;99.90;;;;;;5130132;28;20039;-78
2022/01/02 07:58:13;;;;;;;0.00;0.00;;;11.30;99.90;;;;;;5096131;28;20046;-78
2022/01/02 08:00:40;;;;;;;0.00;0.00;;;11.20;99.90;;;;;;5096660;28;20032;-84
2022/01/02 08:03:07;;;;;;;0.00;0.00;;;11.20;99.90;;;;;;5146738;28;20040;-79
2022/01/02 08:05:34;;;;;;;0.10;0.10;;;11.20;99.90;;;;;;5164184;27;20051;-84
2022/01/02 08:08:01;;;;;;;0.00;0.00;;;11.20;99.90;;;;;;5164209;28;20036;-84
2022/01/02 08:10:28;;;;;;;0.00;0.00;;;11.20;99.90;;;;;;5112947;28;20487;-84
2022/01/02 08:12:55;;;;;;;0.00;0.00;;;11.20;99.90;;;;;;5130581;28;20096;-80
2022/01/02 08:15:22;;;;;;;0.00;0.00;;;11.20;99.90;;;;;;5129339;28;20441;-86
2022/01/02 08:17:48;;;;;;;0.00;0.00;;;11.20;99.90;;;;;;5129274;28;20054;-80
2022/01/02 08:20:15;;;;;;;0.17;0.17;;;11.20;99.90;;;;;;5112490;28;20035;-86
2022/01/02 08:22:42;;;;;;;0.00;0.00;;;11.20;99.90;;;;;;5113135;28;20036;-80
2022/01/02 08:25:09;;;;;;;0.70;0.22;;;11.20;99.90;;;;;;5113196;28;20377;-80
2022/01/02 08:27:35;;;;;;;0.00;0.00;;;11.20;99.90;;;;;;5130390;28;20594;-85
2022/01/02 08:30:03;;;;;;;0.00;0.00;;;11.20;99.90;;;;;;5112947;28;20044;-86
2022/01/02 08:32:30;;;;;;;0.00;0.00;;;11.20;99.90;;;;;;5129833;28;20043;-81
2022/01/02 08:34:57;;;;;;;0.00;0.00;;;11.20;99.90;;;;;;5132559;28;20046;-80
2022/01/02 08:37:24;;;;;;;0.00;0.00;;;11.20;99.90;;;;;;5116888;28;20411;-86
2022/01/02 08:39:51;;;;;;;0.00;0.00;;;11.20;99.90;;;;;;5117145;28;20043;-86
2022/01/02 08:42:17;;;;;;;0.10;0.10;;;11.20;99.90;;;;;;5117290;28;20035;-86
2022/01/02 08:44:44;;;;;;;0.10;0.10;;;11.20;99.90;;;;;;5133483;28;20553;-80
2022/01/02 08:47:11;;;;;;;0.00;0.00;;;11.10;99.90;;;;;;5132979;28;20040;-80
2022/01/02 08:49:39;;;;;;;0.00;0.00;;;11.20;99.90;;;;;;5134261;28;20496;-86
2022/01/02 08:52:06;;;;;;;0.00;0.00;;;11.10;99.90;;;;;;5133673;28;20122;-86
2022/01/02 08:54:32;;;;;;;0.38;0.20;;;11.10;99.90;;;;;;5133710;28;20540;-87
2022/01/02 08:56:59;;;;;;;0.00;0.00;;;11.10;99.90;;;;;;5100138;28;20113;-80
2022/01/02 08:59:27;;;;;;;0.05;0.05;;;11.10;99.90;;;;;;5099180;28;20032;-80
2022/01/02 09:01:55;;;;;;;0.00;0.00;;;11.00;99.90;;;;;;5132900;28;20040;-81
2022/01/02 09:04:23;;;;;;;0.00;0.00;;;11.00;99.90;;;;;;5134491;28;20064;-85
2022/01/02 09:06:49;;;;;;;0.00;0.00;;;11.00;99.90;;;;;;5156402;27;20073;-80
2022/01/02 09:09:17;;;;;;;0.00;0.00;;;11.00;99.90;;;;;;5132455;28;20043;-85
2022/01/02 09:11:44;;;;;;;0.00;0.00;;;11.00;99.90;;;;;;5144966;28;20046;-86
2022/01/02 09:14:11;;;;;;;0.00;0.00;;;11.00;99.90;;;;;;5135655;28;20043;-86
2022/01/02 09:16:39;;;;;;;0.20;0.20;;;10.90;99.90;;;;;;5149709;28;20047;-80
2022/01/02 09:19:07;;;;;;;0.00;0.00;;;10.90;99.90;;;;;;5116467;28;20402;-84
2022/01/02 09:21:33;;;;;;;0.00;0.00;;;10.90;99.90;;;;;;5116638;28;20101;-80
2022/01/02 09:24:00;;;;;;;0.00;0.00;;;10.90;99.90;;;;;;5096641;28;20443;-81
2022/01/02 09:26:27;;;;;;;0.00;0.00;;;10.90;99.90;;;;;;5112592;28;20036;-79
2022/01/02 09:28:53;;;;;;;0.00;0.00;;;10.90;99.90;;;;;;5116443;28;20072;-79
2022/01/02 09:31:20;;;;;;;0.00;0.00;;;10.90;99.90;;;;;;5131803;28;20118;-85
2022/01/02 09:33:47;;;;;;;0.00;0.00;;;11.00;99.90;;;;;;5115852;28;20046;-88
2022/01/02 09:36:14;;;;;;;0.00;0.00;;;10.90;99.90;;;;;;5115897;28;20042;-87
2022/01/02 09:38:42;;;;;;;0.00;0.00;;;10.90;99.90;;;;;;5133084;28;20035;-85
2022/01/02 09:41:09;;;;;;;0.10;0.10;;;10.90;99.90;;;;;;5147943;28;20040;-85
2022/01/02 09:43:36;;;;;;;0.00;0.00;;;10.90;99.90;;;;;;5148112;28;20035;-80
2022/01/02 09:46:04;;;;;;;0.00;0.00;;;11.00;99.90;;;;;;5131008;28;20480;-81
2022/01/02 09:48:31;;;;;;;0.00;0.00;;;11.00;99.90;;;;;;5146887;28;20067;-80
2022/01/02 09:50:58;;;;;;;0.00;0.00;;;11.00;99.90;;;;;;5130864;28;20032;-80
2022/01/02 09:53:25;;;;;;;0.00;0.00;;;10.90;99.90;;;;;;5148449;27;20224;-79
2022/01/02 09:55:54;;;;;;;0.03;0.03;;;11.00;99.90;;;;;;5148647;27;20561;-80
2022/01/02 09:58:25;;;;;;;0.00;0.00;;;11.00;99.90;;;;;;5112191;28;20386;-85
2022/01/02 10:00:53;;;;;;;0.00;0.00;;;11.00;99.90;;;;;;5132165;28;20043;-80
2022/01/02 10:03:19;;;;;;;0.00;0.00;;;11.00;99.90;;;;;;5148394;27;20085;-86
2022/01/02 10:05:51;;;;;;;0.00;0.00;;;11.00;99.90;;;;;;5131893;28;20055;-85
2022/01/02 10:08:28;;;;;;;0.05;0.05;;;11.10;99.90;;;;;;5131977;28;20050;-80
2022/01/02 10:11:25;;;;;;;0.00;0.00;;;11.10;99.90;;;;;;5131583;28;20031;-80
2022/01/02 10:13:54;;;;;;;0.00;0.00;;;11.10;99.90;;;;;;5132172;28;20040;-86
2022/01/02 10:16:42;;;;;;;0.00;0.00;;;11.10;99.90;;;;;;5130074;28;20040;-80
2022/01/02 10:19:35;;;;;;;0.00;0.00;;;11.10;99.90;;;;;;5158966;27;20055;-81
2022/01/02 10:22:05;;;;;;;0.00;0.00;;;11.10;99.90;;;;;;5132942;28;20085;-80
2022/01/02 10:24:36;;;;;;;0.00;0.00;;;11.20;99.90;;;;;;5147711;28;20100;-80
2022/01/02 10:27:13;;;;;;;0.00;0.00;;;11.10;99.90;;;;;;5115404;28;20496;-86
2022/01/02 10:29:48;;;;;;;0.00;0.00;;;11.10;99.90;;;;;;5131765;28;20097;-86
2022/01/02 10:32:34;;;;;;;0.10;0.10;;;11.10;99.90;;;;;;5131677;28;20097;-86
2022/01/02 10:35:08;;;;;;;;;;;11.10;99.90;;;;;;5131779;28;20073;-87
2022/01/02 10:37:36;;;;;;;0.00;0.00;;;11.20;99.90;;;;;;5131228;28;19999;-87
2022/01/02 10:40:03;;;;;;;0.10;0.08;;;11.20;99.90;;;;;;5131031;28;20039;-81
2022/01/02 10:42:44;;;;;;;0.00;0.00;;;11.20;99.90;;;;;;5131173;28;20845;-89
2022/01/02 10:45:11;;;;;;;0.00;0.00;;;11.30;99.90;;;;;;5131733;28;20043;-84
2022/01/02 10:47:43;;;;;;;0.00;0.00;;;11.20;99.90;;;;;;5112910;28;20032;-80
2022/01/02 10:50:12;;;;;;;0.00;0.00;;;11.20;99.90;;;;;;5130680;28;20510;-80
2022/01/02 10:52:45;;;;;;;0.00;0.00;;;11.30;99.90;;;;;;5131890;28;20419;-86
2022/01/02 10:55:20;;;;;;;0.00;0.00;;;11.40;99.90;;;;;;5131247;28;20093;-84
2022/01/02 10:57:50;;;;;;;0.13;0.13;;;11.30;99.90;;;;;;5131989;28;20126;-85
2022/01/02 11:00:23;;;;;;;0.00;0.00;;;11.30;99.90;;;;;;5130725;28;20067;-82
2022/01/02 11:02:50;;;;;;;0.32;0.30;;;11.30;99.90;;;;;;5130980;28;20043;-80
2022/01/02 11:05:19;;;;;;;0.00;0.00;;;11.30;99.90;;;;;;5113470;28;20058;-81
2022/01/02 11:07:51;;;;;;;0.00;0.00;;;11.30;99.90;;;;;;5131001;28;20557;-86
2022/01/02 11:10:23;;;;;;;0.00;0.00;;;11.30;99.90;;;;;;5164219;27;20090;-81
2022/01/02 11:12:53;;;;;;;0.00;0.00;;;11.30;99.90;;;;;;5130558;28;20085;-85
2022/01/02 11:15:22;;;;;;;0.00;0.00;;;11.30;99.90;;;;;;5130284;28;20044;-81
2022/01/02 11:17:49;;;;;;;0.08;0.08;;;11.30;99.90;;;;;;5114465;28;20043;-86
2022/01/02 11:20:28;;;;;;;0.00;0.00;;;11.30;99.90;;;;;;5129897;28;20039;-82
2022/01/02 11:22:56;;;;;;;0.00;0.00;;;11.30;99.90;;;;;;5130800;28;20073;-81
2022/01/02 11:25:42;;;;;;;0.08;0.08;;;11.30;99.90;;;;;;5147222;28;20043;-86
2022/01/02 11:28:35;;;;;;;0.00;0.00;;;11.40;99.90;;;;;;5130619;28;20040;-81
2022/01/02 11:31:04;;;;;;;0.00;0.00;;;11.40;99.90;;;;;;5133191;28;20385;-80
2022/01/02 11:33:32;;;;;;;0.00;0.00;;;11.40;99.90;;;;;;5130932;28;20044;-85
2022/01/02 11:36:19;;;;;;;0.00;0.00;;;11.40;99.90;;;;;;5147669;28;20126;-81
2022/01/02 11:39:05;;;;;;;0.00;0.00;;;11.40;99.90;;;;;;5130067;28;20428;-86
2022/01/02 11:41:39;;;;;;;0.00;0.00;;;11.40;99.90;;;;;;5147262;28;20126;-86
2022/01/02 11:44:08;;;;;;;0.00;0.00;;;11.40;99.90;;;;;;5130137;28;20067;-81
2022/01/02 11:46:56;;;;;;;0.03;0.03;;;11.40;99.90;;;;;;5146515;28;20035;-82
2022/01/02 11:49:40;;;;;;;0.10;0.10;;;11.50;99.90;;;;;;5133941;28;20071;-81
2022/01/02 11:52:10;;;;;;;0.00;0.00;;;11.40;99.90;;;;;;5129653;28;20500;-85
2022/01/02 11:54:43;;;;;;;0.00;0.00;;;11.40;99.90;;;;;;5146760;28;20046;-86
2022/01/02 11:57:10;;;;;;;0.00;0.00;;;11.40;99.90;;;;;;5130870;28;20046;-81
2022/01/02 11:59:40;;;;;;;0.00;0.00;;;11.40;99.90;;;;;;5157989;27;20035;-85
2022/01/02 12:02:12;;;;;;;0.00;0.00;;;11.40;99.90;;;;;;5130084;28;20048;-86
2022/01/02 12:05:14;;;;;;;0.00;0.00;;;11.40;99.90;;;;;;5129208;28;20408;-85
2022/01/02 12:07:57;;;;;;;0.00;0.00;;;11.30;99.90;;;;;;5145130;28;20035;-81
2022/01/02 12:10:35;;;;;;;0.00;0.00;;;11.30;99.90;;;;;;5142893;28;20067;-85
2022/01/02 12:13:20;;;;;;;0.15;0.15;;;11.30;99.90;;;;;;5126767;28;20058;-85
2022/01/02 12:15:47;;;;;;;0.00;0.00;;;11.30;99.90;;;;;;5110056;28;20109;-81
2022/01/02 12:18:20;;;;;;;0.00;0.00;;;11.30;99.90;;;;;;5126134;28;20511;-81
2022/01/02 12:20:53;;;;;;;0.00;0.00;;;11.40;99.90;;;;;;5125634;28;20089;-85
2022/01/02 12:23:35;;;;;;;0.00;0.00;;;11.40;99.90;;;;;;5129862;28;20054;-81
2022/01/02 12:26:18;;;;;;;0.00;0.00;;;11.40;99.90;;;;;;5129572;28;20174;-85
2022/01/02 12:28:46;;;;;;;0.00;0.00;;;11.40;99.90;;;;;;5129784;28;20047;-80
2022/01/02 12:31:15;;;;;;;0.00;0.00;;;11.40;99.90;;;;;;5129256;28;20488;-85
2022/01/02 12:33:43;;;;;;;0.00;0.00;;;11.40;99.90;;;;;;5129647;28;20181;-85
2022/01/02 12:36:16;;;;;;;0.00;0.00;;;11.40;99.90;;;;;;5130012;28;20036;-80
2022/01/02 12:38:53;;;;;;;0.00;0.00;;;11.40;99.90;;;;;;5128960;28;20055;-81
2022/01/02 12:41:31;;;;;;;0.17;0.10;;;11.40;99.90;;;;;;5129841;28;20072;-81
2022/01/02 12:44:11;;;;;;;0.00;0.00;;;11.40;99.90;;;;;;5129509;28;20047;-84
2022/01/02 12:46:54;;;;;;;0.00;0.00;;;11.30;99.90;;;;;;5130112;28;20662;-86
2022/01/02 12:49:40;;;;;;;0.00;0.00;;;11.40;99.90;;;;;;5129412;28;20449;-86
2022/01/02 12:52:11;;;;;;;0.00;0.00;;;11.40;99.90;;;;;;5129670;28;20494;-85
2022/01/02 12:54:43;;;;;;;0.00;0.00;;;11.40;99.90;;;;;;5129837;28;20040;-81
2022/01/02 12:57:13;;;;;;;0.10;0.00;;;11.40;99.90;;;;;;5129809;28;20039;-85
2022/01/02 12:59:41;;;;;;;0.00;0.00;;;11.40;99.90;;;;;;5111934;28;20051;-80
2022/01/02 13:02:10;;;;;;;0.00;0.00;;;11.40;99.90;;;;;;5112354;28;20050;-85
2022/01/02 13:04:59;;;;;;;0.17;0.10;;;11.40;99.90;;;;;;5129073;28;20100;-84